sensor_id;sensor_type;location;lat;lon;timestamp;P1;durP1;ratioP1;P2;durP2;ratioP2
15192;SDS011;7697;51.630;7.484;2023-05-31T00:04:58;4.15;;;3.65;;
15192;SDS011;7697;51.630;7.484;2023-05-31T00:10:00;5.20;;;4.80;;
15192;SDS011;7697;51.630;7.484;2023-05-31T00:15:03;5.25;;;4.45;;
15192;SDS011;7697;51.630;7.484;2023-05-31T00:20:06;3.90;;;3.50;;
15192;SDS011;7697;51.630;7.484;2023-05-31T00:25:08;4.22;;;3.75;;
15192;SDS011;7697;51.630;7.484;2023-05-31T00:30:12;4.18;;;3.78;;
15192;SDS011;7697;51.630;7.484;2023-05-31T00:35:14;4.10;;;3.70;;
15192;SDS011;7697;51.630;7.484;2023-05-31T00:40:15;4.30;;;3.83;;
15192;SDS011;7697;51.630;7.484;2023-05-31T00:45:18;4.05;;;3.65;;
15192;SDS011;7697;51.630;7.484;2023-05-31T00:50:20;3.70;;;3.40;;
15192;SDS011;7697;51.630;7.484;2023-05-31T00:55:22;4.43;;;3.72;;
15192;SDS011;7697;51.630;7.484;2023-05-31T01:00:26;4.50;;;4.10;;
15192;SDS011;7697;51.630;7.484;2023-05-31T01:05:29;4.72;;;4.30;;
15192;SDS011;7697;51.630;7.484;2023-05-31T01:10:30;4.10;;;3.75;;
15192;SDS011;7697;51.630;7.484;2023-05-31T01:15:35;3.83;;;3.40;;
15192;SDS011;7697;51.630;7.484;2023-05-31T01:20:41;4.18;;;3.78;;
15192;SDS011;7697;51.630;7.484;2023-05-31T01:25:58;4.63;;;4.22;;
15192;SDS011;7697;51.630;7.484;2023-05-31T01:31:20;4.30;;;3.90;;
15192;SDS011;7697;51.630;7.484;2023-05-31T01:36:22;4.18;;;3.78;;
15192;SDS011;7697;51.630;7.484;2023-05-31T01:41:24;3.90;;;3.50;;
15192;SDS011;7697;51.630;7.484;2023-05-31T01:46:30;5.00;;;4.22;;
15192;SDS011;7697;51.630;7.484;2023-05-31T01:51:32;4.70;;;4.30;;
15192;SDS011;7697;51.630;7.484;2023-05-31T01:56:38;4.32;;;3.92;;
15192;SDS011;7697;51.630;7.484;2023-05-31T02:01:42;4.63;;;4.22;;
15192;SDS011;7697;51.630;7.484;2023-05-31T02:06:44;4.78;;;3.95;;
15192;SDS011;7697;51.630;7.484;2023-05-31T02:11:46;6.18;;;4.70;;
15192;SDS011;7697;51.630;7.484;2023-05-31T02:16:49;5.60;;;4.70;;
15192;SDS011;7697;51.630;7.484;2023-05-31T02:21:51;5.22;;;4.20;;
15192;SDS011;7697;51.630;7.484;2023-05-31T02:26:53;5.97;;;4.57;;
15192;SDS011;7697;51.630;7.484;2023-05-31T02:31:56;4.82;;;4.28;;
15192;SDS011;7697;51.630;7.484;2023-05-31T02:36:57;4.63;;;4.22;;
15192;SDS011;7697;51.630;7.484;2023-05-31T02:41:59;5.00;;;4.60;;
15192;SDS011;7697;51.630;7.484;2023-05-31T02:47:02;4.63;;;4.22;;
15192;SDS011;7697;51.630;7.484;2023-05-31T02:52:04;5.30;;;4.80;;
15192;SDS011;7697;51.630;7.484;2023-05-31T02:57:06;5.75;;;5.03;;
15192;SDS011;7697;51.630;7.484;2023-05-31T03:02:09;4.88;;;4.45;;
15192;SDS011;7697;51.630;7.484;2023-05-31T03:07:11;4.50;;;4.10;;
15192;SDS011;7697;51.630;7.484;2023-05-31T03:12:13;6.57;;;4.50;;
15192;SDS011;7697;51.630;7.484;2023-05-31T03:17:16;5.13;;;4.65;;
15192;SDS011;7697;51.630;7.484;2023-05-31T03:22:17;5.63;;;4.68;;
15192;SDS011;7697;51.630;7.484;2023-05-31T03:27:20;5.00;;;4.50;;
15192;SDS011;7697;51.630;7.484;2023-05-31T03:32:23;5.63;;;4.68;;
15192;SDS011;7697;51.630;7.484;2023-05-31T03:37:25;4.90;;;4.40;;
15192;SDS011;7697;51.630;7.484;2023-05-31T03:42:27;4.47;;;4.07;;
15192;SDS011;7697;51.630;7.484;2023-05-31T03:47:32;5.28;;;4.82;;
15192;SDS011;7697;51.630;7.484;2023-05-31T03:52:34;4.80;;;4.30;;
15192;SDS011;7697;51.630;7.484;2023-05-31T03:57:37;4.78;;;4.38;;
15192;SDS011;7697;51.630;7.484;2023-05-31T04:02:40;6.85;;;4.57;;
15192;SDS011;7697;51.630;7.484;2023-05-31T04:07:42;5.35;;;4.85;;
15192;SDS011;7697;51.630;7.484;2023-05-31T04:12:44;4.63;;;3.85;;
15192;SDS011;7697;51.630;7.484;2023-05-31T04:17:47;4.82;;;4.22;;
15192;SDS011;7697;51.630;7.484;2023-05-31T04:22:48;4.93;;;4.47;;
15192;SDS011;7697;51.630;7.484;2023-05-31T04:27:50;5.70;;;4.80;;
15192;SDS011;7697;51.630;7.484;2023-05-31T04:32:53;5.10;;;4.60;;
15192;SDS011;7697;51.630;7.484;2023-05-31T04:37:57;5.38;;;4.88;;
15192;SDS011;7697;51.630;7.484;2023-05-31T04:43:02;5.97;;;4.95;;
15192;SDS011;7697;51.630;7.484;2023-05-31T04:48:06;5.60;;;5.05;;
15192;SDS011;7697;51.630;7.484;2023-05-31T04:53:08;6.07;;;5.47;;
15192;SDS011;7697;51.630;7.484;2023-05-31T04:58:10;6.22;;;5.35;;
15192;SDS011;7697;51.630;7.484;2023-05-31T05:03:13;8.18;;;6.28;;
15192;SDS011;7697;51.630;7.484;2023-05-31T05:08:15;8.43;;;6.47;;
15192;SDS011;7697;51.630;7.484;2023-05-31T05:13:18;6.40;;;5.45;;
15192;SDS011;7697;51.630;7.484;2023-05-31T05:18:21;6.70;;;6.00;;
15192;SDS011;7697;51.630;7.484;2023-05-31T05:23:23;8.15;;;5.95;;
15192;SDS011;7697;51.630;7.484;2023-05-31T05:28:26;8.70;;;6.40;;
15192;SDS011;7697;51.630;7.484;2023-05-31T05:33:29;7.70;;;6.50;;
15192;SDS011;7697;51.630;7.484;2023-05-31T05:38:31;7.75;;;6.22;;
15192;SDS011;7697;51.630;7.484;2023-05-31T05:43:33;8.55;;;6.88;;
15192;SDS011;7697;51.630;7.484;2023-05-31T05:48:36;9.23;;;7.10;;
15192;SDS011;7697;51.630;7.484;2023-05-31T05:53:37;9.02;;;6.30;;
15192;SDS011;7697;51.630;7.484;2023-05-31T05:58:39;9.32;;;7.43;;
15192;SDS011;7697;51.630;7.484;2023-05-31T06:03:42;10.30;;;7.05;;
15192;SDS011;7697;51.630;7.484;2023-05-31T06:08:45;9.40;;;7.95;;
15192;SDS011;7697;51.630;7.484;2023-05-31T06:13:47;10.10;;;6.53;;
15192;SDS011;7697;51.630;7.484;2023-05-31T06:18:50;8.18;;;7.32;;
15192;SDS011;7697;51.630;7.484;2023-05-31T06:23:53;7.95;;;6.55;;
15192;SDS011;7697;51.630;7.484;2023-05-31T06:28:55;9.57;;;6.45;;
15192;SDS011;7697;51.630;7.484;2023-05-31T06:34:01;10.48;;;7.03;;
15192;SDS011;7697;51.630;7.484;2023-05-31T06:39:03;7.68;;;6.03;;
15192;SDS011;7697;51.630;7.484;2023-05-31T06:44:05;9.77;;;6.65;;
15192;SDS011;7697;51.630;7.484;2023-05-31T06:49:08;9.32;;;6.47;;
15192;SDS011;7697;51.630;7.484;2023-05-31T06:54:10;10.68;;;6.75;;
15192;SDS011;7697;51.630;7.484;2023-05-31T06:59:13;6.78;;;6.07;;
15192;SDS011;7697;51.630;7.484;2023-05-31T07:04:16;7.00;;;5.90;;
15192;SDS011;7697;51.630;7.484;2023-05-31T07:09:18;7.07;;;5.90;;
15192;SDS011;7697;51.630;7.484;2023-05-31T07:14:19;7.78;;;6.22;;
15192;SDS011;7697;51.630;7.484;2023-05-31T07:19:23;7.82;;;5.97;;
15192;SDS011;7697;51.630;7.484;2023-05-31T07:24:25;6.47;;;5.38;;
15192;SDS011;7697;51.630;7.484;2023-05-31T07:29:26;6.32;;;4.78;;
15192;SDS011;7697;51.630;7.484;2023-05-31T07:34:29;8.07;;;4.88;;
15192;SDS011;7697;51.630;7.484;2023-05-31T07:39:31;6.53;;;4.78;;
15192;SDS011;7697;51.630;7.484;2023-05-31T07:44:33;9.75;;;6.22;;
15192;SDS011;7697;51.630;7.484;2023-05-31T07:49:36;6.10;;;4.97;;
15192;SDS011;7697;51.630;7.484;2023-05-31T07:54:37;5.03;;;4.40;;
15192;SDS011;7697;51.630;7.484;2023-05-31T07:59:39;7.20;;;5.10;;
15192;SDS011;7697;51.630;7.484;2023-05-31T08:04:42;6.32;;;4.85;;
15192;SDS011;7697;51.630;7.484;2023-05-31T08:09:44;7.45;;;4.88;;
15192;SDS011;7697;51.630;7.484;2023-05-31T08:14:47;8.48;;;5.00;;
15192;SDS011;7697;51.630;7.484;2023-05-31T08:19:50;7.03;;;4.90;;
15192;SDS011;7697;51.630;7.484;2023-05-31T08:24:52;6.47;;;4.68;;
15192;SDS011;7697;51.630;7.484;2023-05-31T08:29:54;7.43;;;4.93;;
15192;SDS011;7697;51.630;7.484;2023-05-31T08:34:57;5.68;;;3.78;;
15192;SDS011;7697;51.630;7.484;2023-05-31T08:39:58;7.13;;;4.55;;
15192;SDS011;7697;51.630;7.484;2023-05-31T08:45:00;5.20;;;3.95;;
15192;SDS011;7697;51.630;7.484;2023-05-31T08:50:04;5.97;;;3.92;;
15192;SDS011;7697;51.630;7.484;2023-05-31T08:55:07;3.80;;;3.08;;
15192;SDS011;7697;51.630;7.484;2023-05-31T09:00:10;6.63;;;3.88;;
15192;SDS011;7697;51.630;7.484;2023-05-31T09:05:15;6.00;;;3.22;;
15192;SDS011;7697;51.630;7.484;2023-05-31T09:10:16;4.90;;;3.00;;
15192;SDS011;7697;51.630;7.484;2023-05-31T09:15:20;5.78;;;3.70;;
15192;SDS011;7697;51.630;7.484;2023-05-31T09:20:31;4.78;;;2.80;;
15192;SDS011;7697;51.630;7.484;2023-05-31T09:25:43;5.00;;;3.45;;
15192;SDS011;7697;51.630;7.484;2023-05-31T09:30:46;5.78;;;3.33;;
15192;SDS011;7697;51.630;7.484;2023-05-31T09:36:02;4.55;;;2.88;;
15192;SDS011;7697;51.630;7.484;2023-05-31T09:41:11;6.22;;;2.85;;
15192;SDS011;7697;51.630;7.484;2023-05-31T09:46:15;4.28;;;3.15;;
15192;SDS011;7697;51.630;7.484;2023-05-31T09:51:19;4.05;;;2.53;;
15192;SDS011;7697;51.630;7.484;2023-05-31T09:56:21;4.47;;;2.92;;
15192;SDS011;7697;51.630;7.484;2023-05-31T10:01:24;3.97;;;2.25;;
15192;SDS011;7697;51.630;7.484;2023-05-31T10:06:27;3.42;;;2.50;;
15192;SDS011;7697;51.630;7.484;2023-05-31T10:11:32;5.32;;;3.00;;
15192;SDS011;7697;51.630;7.484;2023-05-31T10:16:38;3.33;;;2.20;;
15192;SDS011;7697;51.630;7.484;2023-05-31T10:21:47;4.53;;;3.00;;
15192;SDS011;7697;51.630;7.484;2023-05-31T10:26:52;6.03;;;2.50;;
15192;SDS011;7697;51.630;7.484;2023-05-31T10:32:01;5.85;;;2.70;;
15192;SDS011;7697;51.630;7.484;2023-05-31T10:37:09;3.92;;;2.65;;
15192;SDS011;7697;51.630;7.484;2023-05-31T10:42:14;4.78;;;2.40;;
15192;SDS011;7697;51.630;7.484;2023-05-31T10:47:24;4.00;;;2.50;;
15192;SDS011;7697;51.630;7.484;2023-05-31T10:52:33;3.85;;;2.50;;
15192;SDS011;7697;51.630;7.484;2023-05-31T10:57:35;4.93;;;2.55;;
15192;SDS011;7697;51.630;7.484;2023-05-31T11:02:37;4.35;;;2.58;;
15192;SDS011;7697;51.630;7.484;2023-05-31T11:07:47;4.55;;;2.22;;
15192;SDS011;7697;51.630;7.484;2023-05-31T11:12:50;4.38;;;2.60;;
15192;SDS011;7697;51.630;7.484;2023-05-31T11:17:52;3.88;;;2.47;;
15192;SDS011;7697;51.630;7.484;2023-05-31T11:28:27;3.40;;;2.40;;
15192;SDS011;7697;51.630;7.484;2023-05-31T11:33:34;5.00;;;2.72;;
15192;SDS011;7697;51.630;7.484;2023-05-31T11:38:46;4.88;;;2.30;;
15192;SDS011;7697;51.630;7.484;2023-05-31T11:43:48;3.47;;;2.33;;
15192;SDS011;7697;51.630;7.484;2023-05-31T11:48:50;3.03;;;2.17;;
15192;SDS011;7697;51.630;7.484;2023-05-31T11:53:56;2.47;;;1.75;;
15192;SDS011;7697;51.630;7.484;2023-05-31T11:58:59;3.35;;;2.45;;
15192;SDS011;7697;51.630;7.484;2023-05-31T12:04:01;7.85;;;2.60;;
15192;SDS011;7697;51.630;7.484;2023-05-31T12:09:04;5.70;;;2.53;;
15192;SDS011;7697;51.630;7.484;2023-05-31T12:14:14;3.75;;;2.45;;
15192;SDS011;7697;51.630;7.484;2023-05-31T12:19:17;4.57;;;2.47;;
15192;SDS011;7697;51.630;7.484;2023-05-31T12:24:20;3.13;;;2.15;;
15192;SDS011;7697;51.630;7.484;2023-05-31T12:29:25;2.88;;;2.10;;
15192;SDS011;7697;51.630;7.484;2023-05-31T12:34:29;2.70;;;2.03;;
15192;SDS011;7697;51.630;7.484;2023-05-31T12:39:35;3.70;;;2.25;;
15192;SDS011;7697;51.630;7.484;2023-05-31T12:44:38;2.60;;;1.95;;
15192;SDS011;7697;51.630;7.484;2023-05-31T12:49:44;3.42;;;2.22;;
15192;SDS011;7697;51.630;7.484;2023-05-31T12:54:48;3.08;;;2.05;;
15192;SDS011;7697;51.630;7.484;2023-05-31T12:59:56;5.55;;;2.30;;
15192;SDS011;7697;51.630;7.484;2023-05-31T13:04:59;2.97;;;1.98;;
15192;SDS011;7697;51.630;7.484;2023-05-31T13:10:02;3.83;;;1.90;;
15192;SDS011;7697;51.630;7.484;2023-05-31T13:15:05;4.00;;;2.17;;
15192;SDS011;7697;51.630;7.484;2023-05-31T13:20:07;4.05;;;2.38;;
15192;SDS011;7697;51.630;7.484;2023-05-31T13:25:11;3.03;;;2.08;;
15192;SDS011;7697;51.630;7.484;2023-05-31T13:30:13;4.43;;;2.28;;
15192;SDS011;7697;51.630;7.484;2023-05-31T13:35:15;3.17;;;2.10;;
15192;SDS011;7697;51.630;7.484;2023-05-31T13:40:19;2.92;;;2.15;;
15192;SDS011;7697;51.630;7.484;2023-05-31T13:45:21;3.05;;;1.98;;
15192;SDS011;7697;51.630;7.484;2023-05-31T13:50:23;3.80;;;1.90;;
15192;SDS011;7697;51.630;7.484;2023-05-31T13:55:26;3.53;;;2.20;;
15192;SDS011;7697;51.630;7.484;2023-05-31T14:00:27;3.63;;;2.05;;
15192;SDS011;7697;51.630;7.484;2023-05-31T14:05:30;3.20;;;2.30;;
15192;SDS011;7697;51.630;7.484;2023-05-31T14:10:34;3.58;;;2.20;;
15192;SDS011;7697;51.630;7.484;2023-05-31T14:15:36;5.20;;;2.72;;
15192;SDS011;7697;51.630;7.484;2023-05-31T14:20:38;3.40;;;2.00;;
15192;SDS011;7697;51.630;7.484;2023-05-31T14:25:41;4.28;;;2.00;;
15192;SDS011;7697;51.630;7.484;2023-05-31T14:30:43;3.25;;;2.20;;
15192;SDS011;7697;51.630;7.484;2023-05-31T14:35:45;4.85;;;2.30;;
15192;SDS011;7697;51.630;7.484;2023-05-31T14:40:48;6.43;;;2.25;;
15192;SDS011;7697;51.630;7.484;2023-05-31T14:45:51;3.55;;;2.42;;
15192;SDS011;7697;51.630;7.484;2023-05-31T14:50:53;4.10;;;2.40;;
15192;SDS011;7697;51.630;7.484;2023-05-31T14:55:57;4.00;;;2.25;;
15192;SDS011;7697;51.630;7.484;2023-05-31T15:00:59;3.42;;;2.33;;
15192;SDS011;7697;51.630;7.484;2023-05-31T15:06:00;5.57;;;2.25;;
15192;SDS011;7697;51.630;7.484;2023-05-31T15:11:03;4.50;;;2.60;;
15192;SDS011;7697;51.630;7.484;2023-05-31T15:16:05;4.60;;;2.20;;
15192;SDS011;7697;51.630;7.484;2023-05-31T15:21:07;3.20;;;2.30;;
15192;SDS011;7697;51.630;7.484;2023-05-31T15:26:10;3.78;;;2.17;;
15192;SDS011;7697;51.630;7.484;2023-05-31T15:31:12;5.50;;;2.40;;
15192;SDS011;7697;51.630;7.484;2023-05-31T15:36:14;3.08;;;2.25;;
15192;SDS011;7697;51.630;7.484;2023-05-31T15:41:17;2.92;;;2.20;;
15192;SDS011;7697;51.630;7.484;2023-05-31T15:46:19;3.55;;;1.95;;
15192;SDS011;7697;51.630;7.484;2023-05-31T15:51:21;2.88;;;2.20;;
15192;SDS011;7697;51.630;7.484;2023-05-31T15:56:25;5.40;;;2.60;;
15192;SDS011;7697;51.630;7.484;2023-05-31T16:01:27;3.47;;;1.98;;
15192;SDS011;7697;51.630;7.484;2023-05-31T16:06:28;4.78;;;2.22;;
15192;SDS011;7697;51.630;7.484;2023-05-31T16:11:33;3.17;;;2.20;;
15192;SDS011;7697;51.630;7.484;2023-05-31T16:16:35;3.40;;;2.10;;
15192;SDS011;7697;51.630;7.484;2023-05-31T16:21:37;3.45;;;2.10;;
15192;SDS011;7697;51.630;7.484;2023-05-31T16:26:40;2.95;;;2.00;;
15192;SDS011;7697;51.630;7.484;2023-05-31T16:31:42;2.55;;;1.95;;
15192;SDS011;7697;51.630;7.484;2023-05-31T16:36:44;4.05;;;2.20;;
15192;SDS011;7697;51.630;7.484;2023-05-31T16:41:47;2.53;;;1.90;;
15192;SDS011;7697;51.630;7.484;2023-05-31T16:46:49;2.83;;;1.63;;
15192;SDS011;7697;51.630;7.484;2023-05-31T16:51:50;2.90;;;2.00;;
15192;SDS011;7697;51.630;7.484;2023-05-31T16:56:54;2.83;;;1.75;;
15192;SDS011;7697;51.630;7.484;2023-05-31T17:01:55;1.98;;;1.50;;
15192;SDS011;7697;51.630;7.484;2023-05-31T17:06:58;3.63;;;1.70;;
15192;SDS011;7697;51.630;7.484;2023-05-31T17:12:01;2.53;;;1.60;;
15192;SDS011;7697;51.630;7.484;2023-05-31T17:17:03;4.82;;;2.35;;
15192;SDS011;7697;51.630;7.484;2023-05-31T17:22:06;2.25;;;1.65;;
15192;SDS011;7697;51.630;7.484;2023-05-31T17:27:09;2.45;;;1.90;;
15192;SDS011;7697;51.630;7.484;2023-05-31T17:32:11;4.22;;;1.88;;
15192;SDS011;7697;51.630;7.484;2023-05-31T17:37:14;2.45;;;1.75;;
15192;SDS011;7697;51.630;7.484;2023-05-31T17:42:17;5.35;;;2.00;;
15192;SDS011;7697;51.630;7.484;2023-05-31T17:47:21;3.90;;;2.10;;
15192;SDS011;7697;51.630;7.484;2023-05-31T17:52:22;2.25;;;1.77;;
15192;SDS011;7697;51.630;7.484;2023-05-31T17:57:25;3.50;;;2.33;;
15192;SDS011;7697;51.630;7.484;2023-05-31T18:02:28;3.35;;;2.35;;
15192;SDS011;7697;51.630;7.484;2023-05-31T18:07:30;2.15;;;1.85;;
15192;SDS011;7697;51.630;7.484;2023-05-31T18:12:33;3.97;;;1.80;;
15192;SDS011;7697;51.630;7.484;2023-05-31T18:17:35;2.17;;;1.60;;
15192;SDS011;7697;51.630;7.484;2023-05-31T18:22:36;3.33;;;1.77;;
15192;SDS011;7697;51.630;7.484;2023-05-31T18:27:39;2.53;;;1.73;;
15192;SDS011;7697;51.630;7.484;2023-05-31T18:32:42;2.97;;;1.98;;
15192;SDS011;7697;51.630;7.484;2023-05-31T18:37:47;2.97;;;1.95;;
15192;SDS011;7697;51.630;7.484;2023-05-31T18:42:50;2.13;;;1.63;;
15192;SDS011;7697;51.630;7.484;2023-05-31T18:47:52;3.30;;;1.83;;
15192;SDS011;7697;51.630;7.484;2023-05-31T18:52:53;3.00;;;1.70;;
15192;SDS011;7697;51.630;7.484;2023-05-31T18:57:56;2.00;;;1.60;;
15192;SDS011;7697;51.630;7.484;2023-05-31T19:02:58;2.58;;;1.52;;
15192;SDS011;7697;51.630;7.484;2023-05-31T19:08:00;1.90;;;1.65;;
15192;SDS011;7697;51.630;7.484;2023-05-31T19:13:03;3.33;;;1.70;;
15192;SDS011;7697;51.630;7.484;2023-05-31T19:18:05;2.25;;;1.42;;
15192;SDS011;7697;51.630;7.484;2023-05-31T19:23:07;2.45;;;1.52;;
15192;SDS011;7697;51.630;7.484;2023-05-31T19:28:10;2.28;;;1.60;;
15192;SDS011;7697;51.630;7.484;2023-05-31T19:33:12;1.73;;;1.40;;
15192;SDS011;7697;51.630;7.484;2023-05-31T19:38:14;1.60;;;1.50;;
15192;SDS011;7697;51.630;7.484;2023-05-31T19:43:17;1.70;;;1.60;;
15192;SDS011;7697;51.630;7.484;2023-05-31T19:48:19;2.28;;;1.58;;
15192;SDS011;7697;51.630;7.484;2023-05-31T19:53:20;1.60;;;1.42;;
15192;SDS011;7697;51.630;7.484;2023-05-31T19:58:23;2.53;;;1.58;;
15192;SDS011;7697;51.630;7.484;2023-05-31T20:03:26;3.03;;;1.55;;
15192;SDS011;7697;51.630;7.484;2023-05-31T20:08:27;1.60;;;1.40;;
15192;SDS011;7697;51.630;7.484;2023-05-31T20:13:30;1.73;;;1.50;;
15192;SDS011;7697;51.630;7.484;2023-05-31T20:18:32;2.58;;;2.00;;
15192;SDS011;7697;51.630;7.484;2023-05-31T20:23:34;4.05;;;1.90;;
15192;SDS011;7697;51.630;7.484;2023-05-31T20:28:37;2.40;;;1.90;;
15192;SDS011;7697;51.630;7.484;2023-05-31T20:33:39;2.35;;;1.88;;
15192;SDS011;7697;51.630;7.484;2023-05-31T20:38:41;2.33;;;1.80;;
15192;SDS011;7697;51.630;7.484;2023-05-31T20:43:44;3.40;;;1.90;;
15192;SDS011;7697;51.630;7.484;2023-05-31T20:48:46;2.33;;;1.70;;
15192;SDS011;7697;51.630;7.484;2023-05-31T20:53:50;2.08;;;1.73;;
15192;SDS011;7697;51.630;7.484;2023-05-31T20:58:53;2.80;;;1.80;;
15192;SDS011;7697;51.630;7.484;2023-05-31T21:03:55;2.75;;;2.00;;
15192;SDS011;7697;51.630;7.484;2023-05-31T21:08:58;3.50;;;1.83;;
15192;SDS011;7697;51.630;7.484;2023-05-31T21:14:02;1.98;;;1.70;;
15192;SDS011;7697;51.630;7.484;2023-05-31T21:19:03;2.42;;;1.70;;
15192;SDS011;7697;51.630;7.484;2023-05-31T21:24:05;2.50;;;1.52;;
15192;SDS011;7697;51.630;7.484;2023-05-31T21:29:08;2.45;;;1.80;;
15192;SDS011;7697;51.630;7.484;2023-05-31T21:34:10;3.65;;;1.95;;
15192;SDS011;7697;51.630;7.484;2023-05-31T21:39:12;2.17;;;1.60;;
15192;SDS011;7697;51.630;7.484;2023-05-31T21:44:15;3.13;;;1.80;;
15192;SDS011;7697;51.630;7.484;2023-05-31T21:49:17;1.98;;;1.67;;
15192;SDS011;7697;51.630;7.484;2023-05-31T21:54:18;2.00;;;1.50;;
15192;SDS011;7697;51.630;7.484;2023-05-31T21:59:21;2.83;;;1.80;;
15192;SDS011;7697;51.630;7.484;2023-05-31T22:04:23;8.68;;;1.88;;
15192;SDS011;7697;51.630;7.484;2023-05-31T22:09:25;2.05;;;1.35;;
15192;SDS011;7697;51.630;7.484;2023-05-31T22:14:28;1.90;;;1.70;;
15192;SDS011;7697;51.630;7.484;2023-05-31T22:19:30;1.95;;;1.70;;
15192;SDS011;7697;51.630;7.484;2023-05-31T22:24:32;3.90;;;1.80;;
15192;SDS011;7697;51.630;7.484;2023-05-31T22:29:35;3.00;;;2.00;;
15192;SDS011;7697;51.630;7.484;2023-05-31T22:34:36;3.03;;;1.80;;
15192;SDS011;7697;51.630;7.484;2023-05-31T22:39:38;2.67;;;1.90;;
15192;SDS011;7697;51.630;7.484;2023-05-31T22:44:41;3.25;;;2.42;;
15192;SDS011;7697;51.630;7.484;2023-05-31T22:49:42;2.40;;;2.03;;
15192;SDS011;7697;51.630;7.484;2023-05-31T22:54:44;5.85;;;2.63;;
15192;SDS011;7697;51.630;7.484;2023-05-31T22:59:47;2.22;;;2.03;;
15192;SDS011;7697;51.630;7.484;2023-05-31T23:04:48;4.65;;;2.40;;
15192;SDS011;7697;51.630;7.484;2023-05-31T23:09:51;3.40;;;2.60;;
15192;SDS011;7697;51.630;7.484;2023-05-31T23:14:54;3.47;;;2.70;;
15192;SDS011;7697;51.630;7.484;2023-05-31T23:19:57;3.33;;;2.15;;
15192;SDS011;7697;51.630;7.484;2023-05-31T23:25:05;2.63;;;2.03;;
15192;SDS011;7697;51.630;7.484;2023-05-31T23:30:09;2.75;;;2.10;;
15192;SDS011;7697;51.630;7.484;2023-05-31T23:35:12;3.03;;;2.33;;
15192;SDS011;7697;51.630;7.484;2023-05-31T23:40:14;2.97;;;2.47;;
15192;SDS011;7697;51.630;7.484;2023-05-31T23:45:17;2.60;;;2.35;;
15192;SDS011;7697;51.630;7.484;2023-05-31T23:50:19;4.18;;;2.25;;
15192;SDS011;7697;51.630;7.484;2023-05-31T23:55:21;2.33;;;2.13;;
